地図

経路データ

SID SEASON NUMBER BASIN SUBBASIN NAME ISO_TIME NATURE LAT LON WMO_WIND WMO_PRES WMO_AGENCY TRACK_TYPE DIST2LAND LANDFALL IFLAG USA_AGENCY USA_ATCF_ID USA_LAT USA_LON USA_RECORD USA_STATUS USA_WIND USA_PRES USA_SSHS USA_R34_NE USA_R34_SE USA_R34_SW USA_R34_NW USA_R50_NE USA_R50_SE USA_R50_SW USA_R50_NW USA_R64_NE USA_R64_SE USA_R64_SW USA_R64_NW USA_POCI USA_ROCI USA_RMW USA_EYE TOKYO_LAT TOKYO_LON TOKYO_GRADE TOKYO_WIND TOKYO_PRES TOKYO_R50_DIR TOKYO_R50_LONG TOKYO_R50_SHORT TOKYO_R30_DIR TOKYO_R30_LONG TOKYO_R30_SHORT TOKYO_LAND CMA_LAT CMA_LON CMA_CAT CMA_WIND CMA_PRES HKO_LAT HKO_LON HKO_CAT HKO_WIND HKO_PRES NEWDELHI_LAT NEWDELHI_LON NEWDELHI_GRADE NEWDELHI_WIND NEWDELHI_PRES NEWDELHI_CI NEWDELHI_DP NEWDELHI_POCI REUNION_LAT REUNION_LON REUNION_TYPE REUNION_WIND REUNION_PRES REUNION_TNUM REUNION_CI REUNION_RMW REUNION_R34_NE REUNION_R34_SE REUNION_R34_SW REUNION_R34_NW REUNION_R50_NE REUNION_R50_SE REUNION_R50_SW REUNION_R50_NW REUNION_R64_NE REUNION_R64_SE REUNION_R64_SW REUNION_R64_NW BOM_LAT BOM_LON BOM_TYPE BOM_WIND BOM_PRES BOM_TNUM BOM_CI BOM_RMW BOM_R34_NE BOM_R34_SE BOM_R34_SW BOM_R34_NW BOM_R50_NE BOM_R50_SE BOM_R50_SW BOM_R50_NW BOM_R64_NE BOM_R64_SE BOM_R64_SW BOM_R64_NW BOM_ROCI BOM_POCI BOM_EYE BOM_POS_METHOD BOM_PRES_METHOD NADI_LAT NADI_LON NADI_CAT NADI_WIND NADI_PRES WELLINGTON_LAT WELLINGTON_LON WELLINGTON_WIND WELLINGTON_PRES DS824_LAT DS824_LON DS824_STAGE DS824_WIND DS824_PRES TD9636_LAT TD9636_LON TD9636_STAGE TD9636_WIND TD9636_PRES TD9635_LAT TD9635_LON TD9635_WIND TD9635_PRES TD9635_ROCI NEUMANN_LAT NEUMANN_LON NEUMANN_CLASS NEUMANN_WIND NEUMANN_PRES MLC_LAT MLC_LON MLC_CLASS MLC_WIND MLC_PRES USA_GUST BOM_GUST BOM_GUST_PER REUNION_GUST REUNION_GUST_PER USA_SEAHGT USA_SEARAD_NE USA_SEARAD_SE USA_SEARAD_SW USA_SEARAD_NW STORM_SPEED STORM_DIR
1954364N22309 1954 99 NA NA ALICE 1954-12-30 06:00:00 TS 22.1000 -50.9000 30 hurdat_atl main 1587 1557 O_____________ hurdat_atl AL161954 22.1000 -50.9000 TD 30 -1 6 267
1954364N22309 1954 99 NA NA ALICE 1954-12-30 09:00:00 TS 22.0826 -51.2424 main 1557 1514 P_____________ AL161954 22.0826 -51.2424 TD 32 -1 7 261
1954364N22309 1954 99 NA NA ALICE 1954-12-30 12:00:00 TS 22.0000 -51.6000 35 1007 hurdat_atl main 1514 1469 O_____________ hurdat_atl AL161954 22.0000 -51.6000 TS 35 1007 0 7 249
1954364N22309 1954 99 NA NA ALICE 1954-12-30 15:00:00 TS 21.8149 -51.9851 main 1469 1424 P_____________ AL161954 21.8149 -51.9851 TS 37 0 8 242
1954364N22309 1954 99 NA NA ALICE 1954-12-30 18:00:00 TS 21.6000 -52.4000 40 hurdat_atl main 1424 1381 O_____________ hurdat_atl AL161954 21.6000 -52.4000 TS 40 0 9 245
1954364N22309 1954 99 NA NA ALICE 1954-12-30 21:00:00 TS 21.4424 -52.8349 main 1379 1326 P_____________ AL161954 21.4424 -52.8349 TS 45 0 9 250
1954364N22309 1954 99 NA NA ALICE 1954-12-31 00:00:00 TS 21.3000 -53.3000 50 hurdat_atl main 1326 1273 O_____________ hurdat_atl AL161954 21.3000 -53.3000 TS 50 0 9 252
1954364N22309 1954 99 NA NA ALICE 1954-12-31 03:00:00 TS 21.1575 -53.7999 main 1273 1217 P_____________ AL161954 21.1575 -53.7999 TS 52 0 10 252
1954364N22309 1954 99 NA NA ALICE 1954-12-31 06:00:00 TS 21.0000 -54.3000 55 hurdat_atl main 1217 1172 O_____________ hurdat_atl AL161954 21.0000 -54.3000 TS 55 0 10 248
1954364N22309 1954 99 NA NA ALICE 1954-12-31 09:00:00 TS 20.7999 -54.7650 main 1162 1117 P_____________ AL161954 20.7999 -54.7650 TS 60 0 9 245
1954364N22309 1954 99 NA NA ALICE 1954-12-31 12:00:00 TS 20.6000 -55.2000 65 hurdat_atl main 1117 1072 O_____________ hurdat_atl AL161954 20.6000 -55.2000 HU 65 1 9 245
1954364N22309 1954 99 NA NA ALICE 1954-12-31 15:00:00 TS 20.4349 -55.6074 main 1072 1029 P_____________ AL161954 20.4349 -55.6074 HU 65 1 8 248
1954364N22309 1954 99 NA NA ALICE 1954-12-31 18:00:00 TS 20.3000 -56.0000 65 hurdat_atl main 1029 986 O_____________ hurdat_atl AL161954 20.3000 -56.0000 HU 65 1 8 252
1954364N22309 1954 99 NA NA ALICE 1954-12-31 21:00:00 TS 20.1925 -56.4149 main 986 943 P_____________ AL161954 20.1925 -56.4149 HU 67 1 8 255
1954364N22309 1954 99 NA NA ALICE 1955-01-01 00:00:00 TS 20.1000 -56.8000 70 hurdat_atl main 943 910 O_____________ hurdat_atl AL161954 20.1000 -56.8000 HU 70 1 7 253
1954364N22309 1954 99 NA NA ALICE 1955-01-01 03:00:00 TS 19.9998 -57.1074 main 910 877 P_____________ AL161954 19.9998 -57.1074 HU 70 1 6 250
1954364N22309 1954 99 NA NA ALICE 1955-01-01 06:00:00 TS 19.9000 -57.4000 70 hurdat_atl main 877 844 O_____________ hurdat_atl AL161954 19.9000 -57.4000 HU 70 1 6 252
1954364N22309 1954 99 NA NA ALICE 1955-01-01 09:00:00 TS 19.8148 -57.7123 main 844 801 P_____________ AL161954 19.8148 -57.7123 HU 72 1 7 253
1954364N22309 1954 99 NA NA ALICE 1955-01-01 12:00:00 TS 19.7000 -58.1000 75 hurdat_atl main 801 746 O_____________ hurdat_atl AL161954 19.7000 -58.1000 HU 75 1 9 251
1954364N22309 1954 99 NA NA ALICE 1955-01-01 15:00:00 TS 19.5224 -58.6050 main 746 680 P_____________ AL161954 19.5224 -58.6050 HU 77 1 11 249
1954364N22309 1954 99 NA NA ALICE 1955-01-01 18:00:00 TS 19.3000 -59.2000 80 hurdat_atl main 680 615 O_____________ hurdat_atl AL161954 19.3000 -59.2000 HU 80 1 13 248
1954364N22309 1954 99 NA NA ALICE 1955-01-01 21:00:00 TS 19.0426 -59.8502 main 604 539 P_____________ AL161954 19.0426 -59.8502 HU 80 1 13 248
1954364N22309 1954 99 NA NA ALICE 1955-01-02 00:00:00 TS 18.8000 -60.5000 80 hurdat_atl main 539 475 O_____________ hurdat_atl AL161954 18.8000 -60.5000 HU 80 1 12 250
1954364N22309 1954 99 NA NA ALICE 1955-01-02 03:00:00 TS 18.6274 -61.0873 main 475 422 P_____________ AL161954 18.6274 -61.0873 HU 77 1 11 254
1954364N22309 1954 99 NA NA ALICE 1955-01-02 06:00:00 TS 18.5000 -61.6000 75 hurdat_atl main 422 379 O_____________ hurdat_atl AL161954 18.5000 -61.6000 HU 75 1 9 256
1954364N22309 1954 99 NA CS ALICE 1955-01-02 09:00:00 TS 18.3924 -62.0524 main 369 337 P_____________ AL161954 18.3924 -62.0524 HU 72 1 8 255
1954364N22309 1954 99 NA CS ALICE 1955-01-02 12:00:00 TS 18.3000 -62.4000 70 hurdat_atl main 337 316 O_____________ hurdat_atl AL161954 18.3000 -62.4000 HU 70 1 6 251
1954364N22309 1954 99 NA CS ALICE 1955-01-02 15:00:00 TS 18.1999 -62.6272 main 316 296 P_____________ AL161954 18.1999 -62.6272 HU 67 1 4 242
1954364N22309 1954 99 NA CS ALICE 1955-01-02 18:00:00 TS 18.1000 -62.8000 65 991 hurdat_atl main 296 275 O_____________ hurdat_atl AL161954 18.1000 -62.8000 HU 65 991 1 4 241
1954364N22309 1954 99 NA CS ALICE 1955-01-02 21:00:00 TS 18.0000 -63.0000 65 991 hurdat_atl main 275 257 O_____________ hurdat_atl AL161954 18.0000 -63.0000 L HU 65 991 1 5 232
1954364N22309 1954 99 NA CS ALICE 1955-01-03 00:00:00 TS 17.8000 -63.2000 60 hurdat_atl main 257 242 O_____________ hurdat_atl AL161954 17.8000 -63.2000 TS 60 0 5 224
1954364N22309 1954 99 NA CS ALICE 1955-01-03 03:00:00 TS 17.6136 -63.3931 main 242 225 P_____________ AL161954 17.6136 -63.3931 TS 60 0 6 224
1954364N22309 1954 99 NA CS ALICE 1955-01-03 06:00:00 TS 17.4000 -63.6000 60 hurdat_atl main 229 221 O_____________ hurdat_atl AL161954 17.4000 -63.6000 TS 60 0 7 220
1954364N22309 1954 99 NA CS ALICE 1955-01-03 09:00:00 TS 17.1075 -63.8350 main 227 216 P_____________ AL161954 17.1075 -63.8350 TS 57 0 8 219
1954364N22309 1954 99 NA CS ALICE 1955-01-03 12:00:00 TS 16.8000 -64.1000 55 999 hurdat_atl main 223 215 O_____________ hurdat_atl AL161954 16.8000 -64.1000 TS 55 999 0 8 224
1954364N22309 1954 99 NA CS ALICE 1955-01-03 15:00:00 TS 16.5351 -64.4150 main 224 217 P_____________ AL161954 16.5351 -64.4150 TS 55 999 0 8 229
1954364N22309 1954 99 NA CS ALICE 1955-01-03 18:00:00 TS 16.3000 -64.7000 55 hurdat_atl main 223 223 I_____________ hurdat_atl AL161954 16.3000 -64.7000 TS 55 999 0 6 225
1954364N22309 1954 99 NA CS ALICE 1955-01-03 21:00:00 TS 16.0924 -64.8799 main 233 233 P_____________ AL161954 16.0924 -64.8799 TS 52 999 0 5 216
1954364N22309 1954 99 NA CS ALICE 1955-01-04 00:00:00 TS 15.9000 -65.0000 50 1000 hurdat_atl main 249 249 O_____________ hurdat_atl AL161954 15.9000 -65.0000 TS 50 1000 0 5 212
1954364N22309 1954 99 NA CS ALICE 1955-01-04 03:00:00 TS 15.7000 -65.1375 main 267 265 P_____________ AL161954 15.7000 -65.1375 TS 47 0 4 206
1954364N22309 1954 99 NA CS ALICE 1955-01-04 06:00:00 TS 15.5000 -65.2000 45 hurdat_atl main 286 286 O_____________ hurdat_atl AL161954 15.5000 -65.2000 TS 45 0 4 0
1954364N22309 1954 99 NA CS ALICE 1955-01-04 09:00:00 TS 15.3000 -65.1299 main 311 311 P_____________ AL161954 15.3000 -65.1299 TS 42 0 4 154
1954364N22309 1954 99 NA CS ALICE 1955-01-04 12:00:00 TS 15.1000 -65.0000 40 hurdat_atl main 335 335 O_____________ hurdat_atl AL161954 15.1000 -65.0000 TS 40 0 5 150
1954364N22309 1954 99 NA CS ALICE 1955-01-04 15:00:00 TS 14.8925 -64.8850 main 359 359 P_____________ AL161954 14.8925 -64.8850 TS 37 0 4 154
1954364N22309 1954 99 NA CS ALICE 1955-01-04 18:00:00 TS 14.7000 -64.8000 35 hurdat_atl main 384 384 O_____________ hurdat_atl AL161954 14.7000 -64.8000 TS 35 0 4 164
1954364N22309 1954 99 NA CS ALICE 1955-01-04 21:00:00 TS 14.5500 -64.7850 main 395 406 P_____________ AL161954 14.5500 -64.7850 TS 35 0 3 0
1954364N22309 1954 99 NA CS ALICE 1955-01-05 00:00:00 TS 14.4000 -64.8000 35 hurdat_atl main 416 408 O_____________ hurdat_atl AL161954 14.4000 -64.8000 TS 35 0 3 178
1954364N22309 1954 99 NA CS ALICE 1955-01-05 03:00:00 TS 14.2075 -64.7850 main 408 386 P_____________ AL161954 14.2075 -64.7850 TS 32 -1 4 0
1954364N22309 1954 99 NA CS ALICE 1955-01-05 06:00:00 TS 14.0000 -64.8000 30 hurdat_atl main 386 366 O_____________ hurdat_atl AL161954 14.0000 -64.8000 TD 30 -1 4 195
1954364N22309 1954 99 NA CS ALICE 1955-01-05 09:00:00 TS 13.7925 -64.9001 main 366 347 P_____________ AL161954 13.7925 -64.9001 TD 27 -1 4 206
1954364N22309 1954 99 NA CS ALICE 1955-01-05 12:00:00 TS 13.6000 -65.0000 25 hurdat_atl main 347 336 O_____________ hurdat_atl AL161954 13.6000 -65.0000 TD 25 -1 4 197
1954364N22309 1954 99 NA CS ALICE 1955-01-05 15:00:00 TS 13.4425 -65.0150 main 325 314 P_____________ AL161954 13.4425 -65.0150 TD 25 -1 3 0
1954364N22309 1954 99 NA CS ALICE 1955-01-05 18:00:00 TS 13.3000 -65.0000 25 hurdat_atl main 314 303 O_____________ hurdat_atl AL161954 13.3000 -65.0000 TD 25 -1 3 176
1954364N22309 1954 99 NA CS ALICE 1955-01-05 21:00:00 TS 13.1525 -64.9950 main 303 282 P_____________ AL161954 13.1525 -64.9950 TD 25 -1 3 0
1954364N22309 1954 99 NA CS ALICE 1955-01-06 00:00:00 TS 13.0000 -65.0000 25 hurdat_atl main 282 O_____________ hurdat_atl AL161954 13.0000 -65.0000 TD 25 -1 3 186

IBTrACS Databaseについて

本データベースは、米国NOAAが公開する1842年以降の世界の熱帯低気圧のベストトラックデータアーカイブInternational Best Track Archive for Climate Stewardship (IBTrACS)を、ウェブで閲覧しやすい形式に変換したものです。

最終更新日:2021-12-01